sensor_id;sensor_type;location;lat;lon;timestamp;P1;durP1;ratioP1;P2;durP2;ratioP2
3847;SDS011;1939;48.720;9.166;2023-05-10T00:02:20;1.17;;;1.07;;
3847;SDS011;1939;48.720;9.166;2023-05-10T00:04:45;2.73;;;1.40;;
3847;SDS011;1939;48.720;9.166;2023-05-10T00:07:10;6.60;;;1.40;;
3847;SDS011;1939;48.720;9.166;2023-05-10T00:09:35;1.23;;;1.00;;
3847;SDS011;1939;48.720;9.166;2023-05-10T00:12:01;5.80;;;1.13;;
3847;SDS011;1939;48.720;9.166;2023-05-10T00:14:26;2.67;;;1.30;;
3847;SDS011;1939;48.720;9.166;2023-05-10T00:16:51;1.67;;;1.20;;
3847;SDS011;1939;48.720;9.166;2023-05-10T00:19:16;0.90;;;0.60;;
3847;SDS011;1939;48.720;9.166;2023-05-10T00:21:42;1.43;;;0.73;;
3847;SDS011;1939;48.720;9.166;2023-05-10T00:24:07;2.63;;;0.80;;
3847;SDS011;1939;48.720;9.166;2023-05-10T00:26:35;1.27;;;0.60;;
3847;SDS011;1939;48.720;9.166;2023-05-10T00:29:00;4.00;;;0.73;;
3847;SDS011;1939;48.720;9.166;2023-05-10T00:31:25;0.70;;;0.40;;
3847;SDS011;1939;48.720;9.166;2023-05-10T00:33:51;1.10;;;0.80;;
3847;SDS011;1939;48.720;9.166;2023-05-10T00:36:16;3.70;;;0.43;;
3847;SDS011;1939;48.720;9.166;2023-05-10T00:38:41;1.17;;;0.67;;
3847;SDS011;1939;48.720;9.166;2023-05-10T00:41:06;1.47;;;0.60;;
3847;SDS011;1939;48.720;9.166;2023-05-10T00:43:32;2.90;;;1.93;;
3847;SDS011;1939;48.720;9.166;2023-05-10T00:45:57;1.10;;;0.60;;
3847;SDS011;1939;48.720;9.166;2023-05-10T00:48:22;0.87;;;0.30;;
3847;SDS011;1939;48.720;9.166;2023-05-10T00:50:48;1.53;;;0.63;;
3847;SDS011;1939;48.720;9.166;2023-05-10T00:53:14;3.20;;;0.50;;
3847;SDS011;1939;48.720;9.166;2023-05-10T00:55:40;0.70;;;0.30;;
3847;SDS011;1939;48.720;9.166;2023-05-10T00:58:05;1.23;;;0.40;;
3847;SDS011;1939;48.720;9.166;2023-05-10T01:00:31;3.13;;;0.40;;
3847;SDS011;1939;48.720;9.166;2023-05-10T01:02:57;0.60;;;0.30;;
3847;SDS011;1939;48.720;9.166;2023-05-10T01:05:22;0.60;;;0.30;;
3847;SDS011;1939;48.720;9.166;2023-05-10T01:07:48;1.60;;;0.50;;
3847;SDS011;1939;48.720;9.166;2023-05-10T01:10:13;0.70;;;0.30;;
3847;SDS011;1939;48.720;9.166;2023-05-10T01:12:39;0.60;;;0.40;;
3847;SDS011;1939;48.720;9.166;2023-05-10T01:15:05;0.60;;;0.20;;
3847;SDS011;1939;48.720;9.166;2023-05-10T01:17:32;0.90;;;0.43;;
3847;SDS011;1939;48.720;9.166;2023-05-10T01:19:57;0.57;;;0.30;;
3847;SDS011;1939;48.720;9.166;2023-05-10T01:27:33;0.97;;;0.30;;
3847;SDS011;1939;48.720;9.166;2023-05-10T01:32:32;0.70;;;0.50;;
3847;SDS011;1939;48.720;9.166;2023-05-10T01:35:03;4.33;;;0.60;;
3847;SDS011;1939;48.720;9.166;2023-05-10T01:37:36;0.63;;;0.40;;
3847;SDS011;1939;48.720;9.166;2023-05-10T01:40:08;4.47;;;0.60;;
3847;SDS011;1939;48.720;9.166;2023-05-10T01:42:40;2.63;;;0.30;;
3847;SDS011;1939;48.720;9.166;2023-05-10T01:45:14;0.63;;;0.50;;
3847;SDS011;1939;48.720;9.166;2023-05-10T01:47:44;1.63;;;0.40;;
3847;SDS011;1939;48.720;9.166;2023-05-10T01:50:18;0.73;;;0.40;;
3847;SDS011;1939;48.720;9.166;2023-05-10T01:52:46;2.00;;;0.80;;
3847;SDS011;1939;48.720;9.166;2023-05-10T01:55:14;0.90;;;0.50;;
3847;SDS011;1939;48.720;9.166;2023-05-10T01:57:40;0.67;;;0.47;;
3847;SDS011;1939;48.720;9.166;2023-05-10T02:00:07;4.10;;;0.53;;
3847;SDS011;1939;48.720;9.166;2023-05-10T02:02:35;1.33;;;0.30;;
3847;SDS011;1939;48.720;9.166;2023-05-10T02:05:02;1.93;;;0.30;;
3847;SDS011;1939;48.720;9.166;2023-05-10T02:07:28;1.10;;;0.33;;
3847;SDS011;1939;48.720;9.166;2023-05-10T02:09:53;0.90;;;0.50;;
3847;SDS011;1939;48.720;9.166;2023-05-10T02:12:19;0.80;;;0.33;;
3847;SDS011;1939;48.720;9.166;2023-05-10T02:14:45;0.80;;;0.30;;
3847;SDS011;1939;48.720;9.166;2023-05-10T02:17:11;1.17;;;0.40;;
3847;SDS011;1939;48.720;9.166;2023-05-10T02:19:38;0.50;;;0.30;;
3847;SDS011;1939;48.720;9.166;2023-05-10T02:22:03;0.80;;;0.40;;
3847;SDS011;1939;48.720;9.166;2023-05-10T02:24:29;0.70;;;0.37;;
3847;SDS011;1939;48.720;9.166;2023-05-10T02:26:56;4.10;;;0.50;;
3847;SDS011;1939;48.720;9.166;2023-05-10T02:29:22;0.90;;;0.37;;
3847;SDS011;1939;48.720;9.166;2023-05-10T02:31:48;1.93;;;0.43;;
3847;SDS011;1939;48.720;9.166;2023-05-10T02:34:15;2.07;;;0.50;;
3847;SDS011;1939;48.720;9.166;2023-05-10T02:36:40;0.70;;;0.33;;
3847;SDS011;1939;48.720;9.166;2023-05-10T02:39:06;0.87;;;0.50;;
3847;SDS011;1939;48.720;9.166;2023-05-10T02:41:35;0.90;;;0.37;;
3847;SDS011;1939;48.720;9.166;2023-05-10T02:44:01;0.80;;;0.40;;
3847;SDS011;1939;48.720;9.166;2023-05-10T02:46:27;1.93;;;0.60;;
3847;SDS011;1939;48.720;9.166;2023-05-10T02:48:53;0.70;;;0.50;;
3847;SDS011;1939;48.720;9.166;2023-05-10T02:51:18;2.20;;;0.40;;
3847;SDS011;1939;48.720;9.166;2023-05-10T02:53:45;0.70;;;0.40;;
3847;SDS011;1939;48.720;9.166;2023-05-10T02:56:12;0.80;;;0.53;;
3847;SDS011;1939;48.720;9.166;2023-05-10T02:58:39;1.77;;;0.60;;
3847;SDS011;1939;48.720;9.166;2023-05-10T03:01:04;3.03;;;0.93;;
3847;SDS011;1939;48.720;9.166;2023-05-10T03:03:29;8.63;;;0.70;;
3847;SDS011;1939;48.720;9.166;2023-05-10T03:05:54;2.80;;;1.03;;
3847;SDS011;1939;48.720;9.166;2023-05-10T03:08:21;0.80;;;0.60;;
3847;SDS011;1939;48.720;9.166;2023-05-10T03:11:10;1.10;;;1.00;;
3847;SDS011;1939;48.720;9.166;2023-05-10T03:16:15;1.20;;;1.10;;
3847;SDS011;1939;48.720;9.166;2023-05-10T03:18:44;1.20;;;0.70;;
3847;SDS011;1939;48.720;9.166;2023-05-10T03:21:13;2.20;;;0.80;;
3847;SDS011;1939;48.720;9.166;2023-05-10T03:23:41;1.63;;;1.20;;
3847;SDS011;1939;48.720;9.166;2023-05-10T03:26:08;1.43;;;0.93;;
3847;SDS011;1939;48.720;9.166;2023-05-10T03:28:36;1.40;;;1.23;;
3847;SDS011;1939;48.720;9.166;2023-05-10T03:31:02;2.17;;;1.07;;
3847;SDS011;1939;48.720;9.166;2023-05-10T03:33:29;7.70;;;1.07;;
3847;SDS011;1939;48.720;9.166;2023-05-10T03:35:54;2.87;;;1.00;;
3847;SDS011;1939;48.720;9.166;2023-05-10T03:38:19;6.10;;;1.07;;
3847;SDS011;1939;48.720;9.166;2023-05-10T03:40:45;1.93;;;1.57;;
3847;SDS011;1939;48.720;9.166;2023-05-10T03:43:10;1.33;;;1.13;;
3847;SDS011;1939;48.720;9.166;2023-05-10T03:45:35;1.80;;;1.47;;
3847;SDS011;1939;48.720;9.166;2023-05-10T03:48:01;1.60;;;1.50;;
3847;SDS011;1939;48.720;9.166;2023-05-10T03:50:26;2.17;;;1.17;;
3847;SDS011;1939;48.720;9.166;2023-05-10T03:52:51;1.70;;;1.53;;
3847;SDS011;1939;48.720;9.166;2023-05-10T03:55:17;6.83;;;1.40;;
3847;SDS011;1939;48.720;9.166;2023-05-10T03:57:42;1.57;;;0.97;;
3847;SDS011;1939;48.720;9.166;2023-05-10T04:00:07;1.53;;;1.07;;
3847;SDS011;1939;48.720;9.166;2023-05-10T04:02:33;3.90;;;1.20;;
3847;SDS011;1939;48.720;9.166;2023-05-10T04:04:58;6.30;;;1.30;;
3847;SDS011;1939;48.720;9.166;2023-05-10T04:07:23;1.53;;;1.43;;
3847;SDS011;1939;48.720;9.166;2023-05-10T04:09:49;1.60;;;1.30;;
3847;SDS011;1939;48.720;9.166;2023-05-10T04:12:14;4.00;;;1.30;;
3847;SDS011;1939;48.720;9.166;2023-05-10T04:14:39;1.77;;;1.40;;
3847;SDS011;1939;48.720;9.166;2023-05-10T04:17:04;1.47;;;1.03;;
3847;SDS011;1939;48.720;9.166;2023-05-10T04:19:30;2.80;;;1.17;;
3847;SDS011;1939;48.720;9.166;2023-05-10T04:21:56;2.40;;;1.17;;
3847;SDS011;1939;48.720;9.166;2023-05-10T04:24:21;1.37;;;1.10;;
3847;SDS011;1939;48.720;9.166;2023-05-10T04:26:46;2.77;;;1.60;;
3847;SDS011;1939;48.720;9.166;2023-05-10T04:29:11;1.40;;;1.30;;
3847;SDS011;1939;48.720;9.166;2023-05-10T04:31:37;2.50;;;1.50;;
3847;SDS011;1939;48.720;9.166;2023-05-10T04:34:02;2.07;;;1.13;;
3847;SDS011;1939;48.720;9.166;2023-05-10T04:36:27;1.30;;;1.20;;
3847;SDS011;1939;48.720;9.166;2023-05-10T04:38:53;3.87;;;1.70;;
3847;SDS011;1939;48.720;9.166;2023-05-10T04:41:19;1.40;;;1.30;;
3847;SDS011;1939;48.720;9.166;2023-05-10T04:43:45;2.40;;;1.13;;
3847;SDS011;1939;48.720;9.166;2023-05-10T04:46:11;2.63;;;1.40;;
3847;SDS011;1939;48.720;9.166;2023-05-10T04:48:36;3.87;;;1.20;;
3847;SDS011;1939;48.720;9.166;2023-05-10T04:51:01;1.87;;;1.10;;
3847;SDS011;1939;48.720;9.166;2023-05-10T04:53:28;5.33;;;1.30;;
3847;SDS011;1939;48.720;9.166;2023-05-10T04:55:53;3.13;;;1.40;;
3847;SDS011;1939;48.720;9.166;2023-05-10T04:58:18;2.60;;;1.57;;
3847;SDS011;1939;48.720;9.166;2023-05-10T05:00:44;3.67;;;2.43;;
3847;SDS011;1939;48.720;9.166;2023-05-10T05:03:09;2.20;;;1.60;;
3847;SDS011;1939;48.720;9.166;2023-05-10T05:05:34;3.87;;;1.23;;
3847;SDS011;1939;48.720;9.166;2023-05-10T05:07:59;3.30;;;1.50;;
3847;SDS011;1939;48.720;9.166;2023-05-10T05:10:25;2.40;;;1.30;;
3847;SDS011;1939;48.720;9.166;2023-05-10T05:12:50;1.00;;;0.90;;
3847;SDS011;1939;48.720;9.166;2023-05-10T05:15:16;1.20;;;1.00;;
3847;SDS011;1939;48.720;9.166;2023-05-10T05:17:41;2.17;;;1.30;;
3847;SDS011;1939;48.720;9.166;2023-05-10T05:20:07;2.93;;;1.10;;
3847;SDS011;1939;48.720;9.166;2023-05-10T05:22:33;2.77;;;1.23;;
3847;SDS011;1939;48.720;9.166;2023-05-10T05:24:58;1.10;;;1.00;;
3847;SDS011;1939;48.720;9.166;2023-05-10T05:27:24;2.40;;;1.40;;
3847;SDS011;1939;48.720;9.166;2023-05-10T05:29:54;1.70;;;1.40;;
3847;SDS011;1939;48.720;9.166;2023-05-10T05:32:19;4.80;;;1.60;;
3847;SDS011;1939;48.720;9.166;2023-05-10T05:34:45;1.37;;;1.13;;
3847;SDS011;1939;48.720;9.166;2023-05-10T05:37:20;1.37;;;1.17;;
3847;SDS011;1939;48.720;9.166;2023-05-10T05:39:46;2.97;;;0.97;;
3847;SDS011;1939;48.720;9.166;2023-05-10T05:42:12;2.77;;;1.50;;
3847;SDS011;1939;48.720;9.166;2023-05-10T05:44:37;2.47;;;1.17;;
3847;SDS011;1939;48.720;9.166;2023-05-10T05:47:03;2.80;;;1.53;;
3847;SDS011;1939;48.720;9.166;2023-05-10T05:49:28;2.40;;;1.30;;
3847;SDS011;1939;48.720;9.166;2023-05-10T05:51:53;2.07;;;1.37;;
3847;SDS011;1939;48.720;9.166;2023-05-10T05:54:18;4.80;;;1.90;;
3847;SDS011;1939;48.720;9.166;2023-05-10T05:56:44;3.40;;;1.57;;
3847;SDS011;1939;48.720;9.166;2023-05-10T05:59:09;1.70;;;1.30;;
3847;SDS011;1939;48.720;9.166;2023-05-10T06:01:34;2.50;;;0.90;;
3847;SDS011;1939;48.720;9.166;2023-05-10T06:04:00;5.17;;;1.20;;
3847;SDS011;1939;48.720;9.166;2023-05-10T06:06:25;1.63;;;1.40;;
3847;SDS011;1939;48.720;9.166;2023-05-10T06:08:50;3.27;;;1.07;;
3847;SDS011;1939;48.720;9.166;2023-05-10T06:11:16;2.40;;;0.90;;
3847;SDS011;1939;48.720;9.166;2023-05-10T06:13:41;1.20;;;1.10;;
3847;SDS011;1939;48.720;9.166;2023-05-10T06:16:07;1.20;;;1.10;;
3847;SDS011;1939;48.720;9.166;2023-05-10T06:18:32;1.70;;;1.10;;
3847;SDS011;1939;48.720;9.166;2023-05-10T06:20:57;6.97;;;1.47;;
3847;SDS011;1939;48.720;9.166;2023-05-10T06:23:23;2.43;;;1.00;;
3847;SDS011;1939;48.720;9.166;2023-05-10T06:25:48;1.20;;;0.90;;
3847;SDS011;1939;48.720;9.166;2023-05-10T06:28:13;1.20;;;1.10;;
3847;SDS011;1939;48.720;9.166;2023-05-10T06:30:38;2.03;;;1.10;;
3847;SDS011;1939;48.720;9.166;2023-05-10T06:33:04;1.47;;;1.30;;
3847;SDS011;1939;48.720;9.166;2023-05-10T06:35:29;1.90;;;1.20;;
3847;SDS011;1939;48.720;9.166;2023-05-10T06:37:56;13.03;;;1.50;;
3847;SDS011;1939;48.720;9.166;2023-05-10T06:40:21;1.33;;;1.10;;
3847;SDS011;1939;48.720;9.166;2023-05-10T06:42:47;1.50;;;1.20;;
3847;SDS011;1939;48.720;9.166;2023-05-10T06:45:12;2.00;;;1.13;;
3847;SDS011;1939;48.720;9.166;2023-05-10T06:47:38;4.13;;;1.07;;
3847;SDS011;1939;48.720;9.166;2023-05-10T06:50:03;1.30;;;1.20;;
3847;SDS011;1939;48.720;9.166;2023-05-10T06:52:28;1.80;;;1.43;;
3847;SDS011;1939;48.720;9.166;2023-05-10T06:54:54;2.53;;;1.07;;
3847;SDS011;1939;48.720;9.166;2023-05-10T06:57:19;3.43;;;1.30;;
3847;SDS011;1939;48.720;9.166;2023-05-10T06:59:45;3.00;;;1.40;;
3847;SDS011;1939;48.720;9.166;2023-05-10T07:02:10;2.93;;;1.30;;
3847;SDS011;1939;48.720;9.166;2023-05-10T07:04:36;1.70;;;1.40;;
3847;SDS011;1939;48.720;9.166;2023-05-10T07:07:01;2.50;;;1.30;;
3847;SDS011;1939;48.720;9.166;2023-05-10T07:09:26;2.60;;;1.47;;
3847;SDS011;1939;48.720;9.166;2023-05-10T07:11:52;1.63;;;1.10;;
3847;SDS011;1939;48.720;9.166;2023-05-10T07:14:17;1.50;;;1.40;;
3847;SDS011;1939;48.720;9.166;2023-05-10T07:16:42;3.33;;;1.40;;
3847;SDS011;1939;48.720;9.166;2023-05-10T07:19:07;1.60;;;1.47;;
3847;SDS011;1939;48.720;9.166;2023-05-10T07:21:32;1.20;;;1.10;;
3847;SDS011;1939;48.720;9.166;2023-05-10T07:23:58;1.63;;;1.30;;
3847;SDS011;1939;48.720;9.166;2023-05-10T07:26:23;2.00;;;1.47;;
3847;SDS011;1939;48.720;9.166;2023-05-10T07:28:49;2.27;;;1.53;;
3847;SDS011;1939;48.720;9.166;2023-05-10T07:31:14;2.37;;;1.20;;
3847;SDS011;1939;48.720;9.166;2023-05-10T07:33:39;1.57;;;1.27;;
3847;SDS011;1939;48.720;9.166;2023-05-10T07:36:04;4.00;;;1.70;;
3847;SDS011;1939;48.720;9.166;2023-05-10T07:38:30;1.80;;;1.70;;
3847;SDS011;1939;48.720;9.166;2023-05-10T07:40:55;4.23;;;1.80;;
3847;SDS011;1939;48.720;9.166;2023-05-10T07:43:20;3.80;;;1.50;;
3847;SDS011;1939;48.720;9.166;2023-05-10T07:45:45;1.20;;;1.10;;
3847;SDS011;1939;48.720;9.166;2023-05-10T07:48:11;2.30;;;0.97;;
3847;SDS011;1939;48.720;9.166;2023-05-10T07:50:36;3.67;;;1.20;;
3847;SDS011;1939;48.720;9.166;2023-05-10T07:53:01;3.73;;;1.43;;
3847;SDS011;1939;48.720;9.166;2023-05-10T07:55:26;5.23;;;3.13;;
3847;SDS011;1939;48.720;9.166;2023-05-10T07:57:51;6.07;;;2.30;;
3847;SDS011;1939;48.720;9.166;2023-05-10T08:00:18;6.27;;;2.23;;
3847;SDS011;1939;48.720;9.166;2023-05-10T08:02:43;1.40;;;1.30;;
3847;SDS011;1939;48.720;9.166;2023-05-10T08:05:08;1.93;;;1.37;;
3847;SDS011;1939;48.720;9.166;2023-05-10T08:07:34;1.53;;;1.20;;
3847;SDS011;1939;48.720;9.166;2023-05-10T08:10:00;1.93;;;0.93;;
3847;SDS011;1939;48.720;9.166;2023-05-10T08:12:25;1.60;;;1.10;;
3847;SDS011;1939;48.720;9.166;2023-05-10T08:14:50;5.03;;;1.10;;
3847;SDS011;1939;48.720;9.166;2023-05-10T08:17:15;0.80;;;0.73;;
3847;SDS011;1939;48.720;9.166;2023-05-10T08:19:40;1.53;;;1.20;;
3847;SDS011;1939;48.720;9.166;2023-05-10T08:22:06;2.40;;;1.10;;
3847;SDS011;1939;48.720;9.166;2023-05-10T08:24:31;3.17;;;1.50;;
3847;SDS011;1939;48.720;9.166;2023-05-10T08:26:56;1.03;;;0.93;;
3847;SDS011;1939;48.720;9.166;2023-05-10T08:29:22;1.37;;;1.00;;
3847;SDS011;1939;48.720;9.166;2023-05-10T08:31:47;1.20;;;0.93;;
3847;SDS011;1939;48.720;9.166;2023-05-10T08:34:12;3.60;;;0.93;;
3847;SDS011;1939;48.720;9.166;2023-05-10T08:36:38;2.17;;;0.80;;
3847;SDS011;1939;48.720;9.166;2023-05-10T08:39:03;1.77;;;1.00;;
3847;SDS011;1939;48.720;9.166;2023-05-10T08:41:28;2.07;;;1.53;;
3847;SDS011;1939;48.720;9.166;2023-05-10T08:43:55;3.33;;;1.47;;
3847;SDS011;1939;48.720;9.166;2023-05-10T08:46:21;1.43;;;0.77;;
3847;SDS011;1939;48.720;9.166;2023-05-10T08:48:46;1.03;;;0.77;;
3847;SDS011;1939;48.720;9.166;2023-05-10T08:51:36;2.57;;;0.77;;
3847;SDS011;1939;48.720;9.166;2023-05-10T08:53:57;5.50;;;0.97;;
3847;SDS011;1939;48.720;9.166;2023-05-10T08:56:23;4.77;;;1.70;;
3847;SDS011;1939;48.720;9.166;2023-05-10T08:58:49;1.37;;;0.80;;
3847;SDS011;1939;48.720;9.166;2023-05-10T09:01:14;1.37;;;0.93;;
3847;SDS011;1939;48.720;9.166;2023-05-10T09:03:41;1.77;;;0.80;;
3847;SDS011;1939;48.720;9.166;2023-05-10T09:06:06;2.77;;;0.83;;
3847;SDS011;1939;48.720;9.166;2023-05-10T09:08:31;1.67;;;0.70;;
3847;SDS011;1939;48.720;9.166;2023-05-10T09:10:57;1.20;;;0.77;;
3847;SDS011;1939;48.720;9.166;2023-05-10T09:13:23;2.20;;;0.90;;
3847;SDS011;1939;48.720;9.166;2023-05-10T09:15:49;0.93;;;0.80;;
3847;SDS011;1939;48.720;9.166;2023-05-10T09:18:14;2.10;;;0.90;;
3847;SDS011;1939;48.720;9.166;2023-05-10T09:20:40;1.07;;;0.97;;
3847;SDS011;1939;48.720;9.166;2023-05-10T09:23:05;0.90;;;0.60;;
3847;SDS011;1939;48.720;9.166;2023-05-10T09:25:30;2.53;;;0.60;;
3847;SDS011;1939;48.720;9.166;2023-05-10T09:27:58;0.60;;;0.50;;
3847;SDS011;1939;48.720;9.166;2023-05-10T09:30:24;2.77;;;0.57;;
3847;SDS011;1939;48.720;9.166;2023-05-10T09:32:50;2.13;;;1.20;;
3847;SDS011;1939;48.720;9.166;2023-05-10T09:35:16;0.83;;;0.60;;
3847;SDS011;1939;48.720;9.166;2023-05-10T09:37:45;1.00;;;0.67;;
3847;SDS011;1939;48.720;9.166;2023-05-10T09:40:14;2.63;;;1.80;;
3847;SDS011;1939;48.720;9.166;2023-05-10T09:42:42;5.73;;;0.90;;
3847;SDS011;1939;48.720;9.166;2023-05-10T09:45:15;4.87;;;0.63;;
3847;SDS011;1939;48.720;9.166;2023-05-10T09:47:40;1.73;;;0.60;;
3847;SDS011;1939;48.720;9.166;2023-05-10T09:50:05;2.03;;;0.70;;
3847;SDS011;1939;48.720;9.166;2023-05-10T09:52:31;2.00;;;0.80;;
3847;SDS011;1939;48.720;9.166;2023-05-10T09:55:10;4.83;;;1.13;;
3847;SDS011;1939;48.720;9.166;2023-05-10T09:57:35;0.90;;;0.50;;
3847;SDS011;1939;48.720;9.166;2023-05-10T10:00:00;2.30;;;0.50;;
3847;SDS011;1939;48.720;9.166;2023-05-10T10:02:28;2.93;;;0.80;;
3847;SDS011;1939;48.720;9.166;2023-05-10T10:04:54;0.90;;;0.60;;
3847;SDS011;1939;48.720;9.166;2023-05-10T10:07:21;1.23;;;0.40;;
3847;SDS011;1939;48.720;9.166;2023-05-10T10:09:47;1.37;;;0.50;;
3847;SDS011;1939;48.720;9.166;2023-05-10T10:12:12;2.60;;;0.50;;
3847;SDS011;1939;48.720;9.166;2023-05-10T10:14:37;2.30;;;0.60;;
3847;SDS011;1939;48.720;9.166;2023-05-10T10:17:03;1.73;;;0.50;;
3847;SDS011;1939;48.720;9.166;2023-05-10T10:19:28;1.53;;;0.53;;
3847;SDS011;1939;48.720;9.166;2023-05-10T10:21:53;1.37;;;0.50;;
3847;SDS011;1939;48.720;9.166;2023-05-10T10:24:18;0.80;;;0.57;;
3847;SDS011;1939;48.720;9.166;2023-05-10T10:26:44;0.80;;;0.40;;
3847;SDS011;1939;48.720;9.166;2023-05-10T10:29:21;2.20;;;0.50;;
3847;SDS011;1939;48.720;9.166;2023-05-10T10:31:51;0.83;;;0.30;;
3847;SDS011;1939;48.720;9.166;2023-05-10T10:34:25;1.00;;;0.70;;
3847;SDS011;1939;48.720;9.166;2023-05-10T10:36:52;11.93;;;0.60;;
3847;SDS011;1939;48.720;9.166;2023-05-10T10:39:17;1.70;;;0.90;;
3847;SDS011;1939;48.720;9.166;2023-05-10T10:41:55;1.63;;;0.77;;
3847;SDS011;1939;48.720;9.166;2023-05-10T10:46:59;2.20;;;0.70;;
3847;SDS011;1939;48.720;9.166;2023-05-10T10:49:25;0.90;;;0.70;;
3847;SDS011;1939;48.720;9.166;2023-05-10T10:54:34;1.03;;;0.70;;
3847;SDS011;1939;48.720;9.166;2023-05-10T10:57:12;1.33;;;0.77;;
3847;SDS011;1939;48.720;9.166;2023-05-10T10:59:41;1.40;;;0.77;;
3847;SDS011;1939;48.720;9.166;2023-05-10T11:02:07;3.20;;;1.10;;
3847;SDS011;1939;48.720;9.166;2023-05-10T11:04:41;2.20;;;0.70;;
3847;SDS011;1939;48.720;9.166;2023-05-10T11:07:17;2.30;;;1.03;;
3847;SDS011;1939;48.720;9.166;2023-05-10T11:09:42;1.53;;;0.97;;
3847;SDS011;1939;48.720;9.166;2023-05-10T11:12:08;2.00;;;0.97;;
3847;SDS011;1939;48.720;9.166;2023-05-10T11:14:33;10.37;;;1.73;;
3847;SDS011;1939;48.720;9.166;2023-05-10T11:16:59;3.27;;;0.60;;
3847;SDS011;1939;48.720;9.166;2023-05-10T11:19:27;3.00;;;0.80;;
3847;SDS011;1939;48.720;9.166;2023-05-10T11:24:30;1.47;;;0.70;;
3847;SDS011;1939;48.720;9.166;2023-05-10T11:26:55;5.10;;;1.10;;
3847;SDS011;1939;48.720;9.166;2023-05-10T11:29:21;2.70;;;0.70;;
3847;SDS011;1939;48.720;9.166;2023-05-10T11:31:46;0.80;;;0.67;;
3847;SDS011;1939;48.720;9.166;2023-05-10T11:34:33;2.70;;;0.90;;
3847;SDS011;1939;48.720;9.166;2023-05-10T11:36:59;2.50;;;0.87;;
3847;SDS011;1939;48.720;9.166;2023-05-10T11:39:28;4.57;;;0.70;;
3847;SDS011;1939;48.720;9.166;2023-05-10T11:41:54;1.63;;;0.67;;
3847;SDS011;1939;48.720;9.166;2023-05-10T11:44:19;3.80;;;0.80;;
3847;SDS011;1939;48.720;9.166;2023-05-10T11:46:44;1.30;;;0.57;;
3847;SDS011;1939;48.720;9.166;2023-05-10T11:49:09;2.13;;;0.80;;
3847;SDS011;1939;48.720;9.166;2023-05-10T11:51:35;1.40;;;1.00;;
3847;SDS011;1939;48.720;9.166;2023-05-10T11:54:02;1.00;;;0.80;;
3847;SDS011;1939;48.720;9.166;2023-05-10T11:56:29;0.90;;;0.70;;
3847;SDS011;1939;48.720;9.166;2023-05-10T11:58:57;1.00;;;0.90;;
3847;SDS011;1939;48.720;9.166;2023-05-10T12:01:23;2.40;;;0.83;;
3847;SDS011;1939;48.720;9.166;2023-05-10T12:03:49;1.83;;;1.13;;
3847;SDS011;1939;48.720;9.166;2023-05-10T12:06:14;3.63;;;0.90;;
3847;SDS011;1939;48.720;9.166;2023-05-10T12:08:44;4.50;;;0.90;;
3847;SDS011;1939;48.720;9.166;2023-05-10T12:11:11;1.03;;;0.70;;
3847;SDS011;1939;48.720;9.166;2023-05-10T12:13:37;1.17;;;0.60;;
3847;SDS011;1939;48.720;9.166;2023-05-10T12:18:49;2.70;;;0.70;;
3847;SDS011;1939;48.720;9.166;2023-05-10T12:21:16;3.43;;;1.00;;
3847;SDS011;1939;48.720;9.166;2023-05-10T12:23:41;1.77;;;1.03;;
3847;SDS011;1939;48.720;9.166;2023-05-10T12:26:09;1.60;;;0.97;;
3847;SDS011;1939;48.720;9.166;2023-05-10T12:28:35;1.80;;;1.00;;
3847;SDS011;1939;48.720;9.166;2023-05-10T12:31:01;3.33;;;2.00;;
3847;SDS011;1939;48.720;9.166;2023-05-10T12:33:26;3.30;;;1.10;;
3847;SDS011;1939;48.720;9.166;2023-05-10T12:35:52;2.13;;;0.80;;
3847;SDS011;1939;48.720;9.166;2023-05-10T12:38:34;0.80;;;0.60;;
3847;SDS011;1939;48.720;9.166;2023-05-10T12:41:10;2.77;;;0.70;;
3847;SDS011;1939;48.720;9.166;2023-05-10T12:43:35;1.80;;;0.70;;
3847;SDS011;1939;48.720;9.166;2023-05-10T12:46:04;2.20;;;0.80;;
3847;SDS011;1939;48.720;9.166;2023-05-10T12:48:29;5.07;;;1.00;;
3847;SDS011;1939;48.720;9.166;2023-05-10T12:50:56;1.47;;;0.90;;
3847;SDS011;1939;48.720;9.166;2023-05-10T12:53:21;3.30;;;0.80;;
3847;SDS011;1939;48.720;9.166;2023-05-10T12:55:46;3.50;;;1.90;;
3847;SDS011;1939;48.720;9.166;2023-05-10T12:58:12;2.37;;;1.30;;
3847;SDS011;1939;48.720;9.166;2023-05-10T13:00:37;1.67;;;0.87;;
3847;SDS011;1939;48.720;9.166;2023-05-10T13:03:03;5.43;;;1.47;;
3847;SDS011;1939;48.720;9.166;2023-05-10T13:05:28;5.77;;;1.13;;
3847;SDS011;1939;48.720;9.166;2023-05-10T13:07:54;1.87;;;1.00;;
3847;SDS011;1939;48.720;9.166;2023-05-10T13:10:19;2.27;;;1.20;;
3847;SDS011;1939;48.720;9.166;2023-05-10T13:12:44;2.10;;;0.90;;
3847;SDS011;1939;48.720;9.166;2023-05-10T13:15:09;3.70;;;1.10;;
3847;SDS011;1939;48.720;9.166;2023-05-10T13:17:35;1.93;;;1.13;;
3847;SDS011;1939;48.720;9.166;2023-05-10T13:20:00;1.20;;;1.10;;
3847;SDS011;1939;48.720;9.166;2023-05-10T13:22:25;5.07;;;1.43;;
3847;SDS011;1939;48.720;9.166;2023-05-10T13:24:50;1.37;;;0.80;;
3847;SDS011;1939;48.720;9.166;2023-05-10T13:27:16;3.03;;;0.70;;
3847;SDS011;1939;48.720;9.166;2023-05-10T13:29:41;1.30;;;0.80;;
3847;SDS011;1939;48.720;9.166;2023-05-10T13:32:06;1.93;;;1.30;;
3847;SDS011;1939;48.720;9.166;2023-05-10T13:34:31;1.07;;;0.70;;
3847;SDS011;1939;48.720;9.166;2023-05-10T13:36:57;2.50;;;1.13;;
3847;SDS011;1939;48.720;9.166;2023-05-10T13:39:22;3.40;;;1.07;;
3847;SDS011;1939;48.720;9.166;2023-05-10T13:41:47;2.60;;;1.40;;
3847;SDS011;1939;48.720;9.166;2023-05-10T13:44:13;1.80;;;0.93;;
3847;SDS011;1939;48.720;9.166;2023-05-10T13:46:39;3.63;;;0.87;;
3847;SDS011;1939;48.720;9.166;2023-05-10T13:49:04;4.50;;;1.00;;
3847;SDS011;1939;48.720;9.166;2023-05-10T13:51:29;2.03;;;0.80;;
3847;SDS011;1939;48.720;9.166;2023-05-10T13:53:56;2.77;;;1.00;;
3847;SDS011;1939;48.720;9.166;2023-05-10T13:56:21;2.10;;;0.87;;
3847;SDS011;1939;48.720;9.166;2023-05-10T13:58:47;1.27;;;0.90;;
3847;SDS011;1939;48.720;9.166;2023-05-10T14:01:12;12.50;;;2.10;;
3847;SDS011;1939;48.720;9.166;2023-05-10T14:03:37;1.70;;;1.20;;
3847;SDS011;1939;48.720;9.166;2023-05-10T14:06:02;1.17;;;0.90;;
3847;SDS011;1939;48.720;9.166;2023-05-10T14:08:28;2.40;;;0.80;;
3847;SDS011;1939;48.720;9.166;2023-05-10T14:10:53;5.40;;;1.50;;
3847;SDS011;1939;48.720;9.166;2023-05-10T14:13:18;2.80;;;1.10;;
3847;SDS011;1939;48.720;9.166;2023-05-10T14:15:43;3.70;;;1.00;;
3847;SDS011;1939;48.720;9.166;2023-05-10T14:18:09;1.00;;;0.90;;
3847;SDS011;1939;48.720;9.166;2023-05-10T14:20:34;4.33;;;1.07;;
3847;SDS011;1939;48.720;9.166;2023-05-10T14:22:59;1.30;;;0.83;;
3847;SDS011;1939;48.720;9.166;2023-05-10T14:25:25;1.93;;;1.33;;
3847;SDS011;1939;48.720;9.166;2023-05-10T14:27:50;3.43;;;1.00;;
3847;SDS011;1939;48.720;9.166;2023-05-10T14:30:16;2.80;;;1.10;;
3847;SDS011;1939;48.720;9.166;2023-05-10T14:32:41;5.43;;;1.00;;
3847;SDS011;1939;48.720;9.166;2023-05-10T14:35:06;2.83;;;1.67;;
3847;SDS011;1939;48.720;9.166;2023-05-10T14:37:32;1.37;;;1.17;;
3847;SDS011;1939;48.720;9.166;2023-05-10T14:39:57;1.47;;;1.20;;
3847;SDS011;1939;48.720;9.166;2023-05-10T14:42:23;2.67;;;0.87;;
3847;SDS011;1939;48.720;9.166;2023-05-10T14:44:48;3.80;;;0.90;;
3847;SDS011;1939;48.720;9.166;2023-05-10T14:47:13;3.83;;;1.00;;
3847;SDS011;1939;48.720;9.166;2023-05-10T14:49:39;2.47;;;1.17;;
3847;SDS011;1939;48.720;9.166;2023-05-10T14:52:04;4.00;;;1.00;;
3847;SDS011;1939;48.720;9.166;2023-05-10T14:54:29;1.97;;;0.70;;
3847;SDS011;1939;48.720;9.166;2023-05-10T14:56:55;1.43;;;0.97;;
3847;SDS011;1939;48.720;9.166;2023-05-10T14:59:20;2.10;;;0.90;;
3847;SDS011;1939;48.720;9.166;2023-05-10T15:01:45;0.70;;;0.70;;
3847;SDS011;1939;48.720;9.166;2023-05-10T15:04:10;2.10;;;1.30;;
3847;SDS011;1939;48.720;9.166;2023-05-10T15:06:37;2.93;;;0.90;;
3847;SDS011;1939;48.720;9.166;2023-05-10T15:09:03;1.93;;;0.90;;
3847;SDS011;1939;48.720;9.166;2023-05-10T15:11:28;2.13;;;1.10;;
3847;SDS011;1939;48.720;9.166;2023-05-10T15:13:54;2.80;;;1.10;;
3847;SDS011;1939;48.720;9.166;2023-05-10T15:16:19;3.13;;;1.13;;
3847;SDS011;1939;48.720;9.166;2023-05-10T15:18:45;1.40;;;0.93;;
3847;SDS011;1939;48.720;9.166;2023-05-10T15:21:10;2.83;;;1.17;;
3847;SDS011;1939;48.720;9.166;2023-05-10T15:23:35;4.00;;;1.03;;
3847;SDS011;1939;48.720;9.166;2023-05-10T15:26:00;3.00;;;1.00;;
3847;SDS011;1939;48.720;9.166;2023-05-10T15:28:26;10.50;;;1.17;;
3847;SDS011;1939;48.720;9.166;2023-05-10T15:30:51;1.90;;;0.90;;